Georgetown, PA

7:29 AM EST on December 22, 2014 (GMT -0500)
Burgettstown PA | Change Station
CLOSE
Current Station
Personal Weather Station
Location: Burgsttown Pa, PA
Elevation: 988 ft
Nearby Weather Stations

Elev 988 ft 40.38 °N, 80.39 °W | Updated 6 seconds ago

Clear
Clear
15.1 °F
Feels Like 15 °F
N
0.0
Wind Variable Wind from South

Today
High -- | Low -- °F
--% Chance of Precip.
Yesterday
High -- | Low -- °F
Precip. -- in
7:42 AM 4:58 PM
New Moon, 0% visible
Pressure 30.18 in
Visibility 5.0 miles
Clouds Scattered Clouds 25000 ft
Windchill 15 °F
Dew Point 15 °F
Humidity 99%
Rainfall 0.00 in
Snow Depth Not available.
UV 0 out of 12
Pollen .10 out of 12
Air Quality Not available.
Flu Activity Not available.
METAR KPIT 221151Z 10005KT 5SM BR SCT250 M04/M06 A3011 RMK AO2 SLP219 T10391056 11039 21050 55002

More Conditions Fewer Conditions

Pressure 30.18 in
Visibility 5.0 miles
Clouds Scattered Clouds 25000 ft
Windchill 15 °F
Dew Point 15 °F
Humidity 99%
Rainfall 0.00 in
Snow Depth Not available.
UV 0 out of 12
Pollen .10 out of 12
Air Quality Not available.
Flu Activity Not available.
METAR KPIT 221151Z 10005KT 5SM BR SCT250 M04/M06 A3011 RMK AO2 SLP219 T10391056 11039 21050 55002

More Conditions Fewer Conditions

10-Day Weather Forecast

Almanac

Astronomy

Dec. 22, 2014 Rise Set
Actual Time
Civil Twilight
Nautical Twilight
Astronomical Twilight
Moon
Length of Visible Light
Length of Day
Tomorrow will be .
, % of the Moon is Illuminated

Today's Extremes

State Highs State Lows

Community

WunderPhotos

Upload Photos

1,779,595 photos uploaded!

WunderBlogs® & News

Nearby

Air Quality

  Air Quality AQ Index Pollutant
Not available.

Snow Depth

Station Depth Elevation

Earthquake Activity

City Distance Mag. Time & Date
Minimum magnitude displayed is 2.5.

Coastal Water Temperatures

Place Temperature

Nearby Weather Stations